sensor_id;sensor_type;location;lat;lon;timestamp;P1;durP1;ratioP1;P2;durP2;ratioP2
80157;SDS011;69485;59.138;37.926;2023-05-07T00:00:22;5.97;;;0.65;;
80157;SDS011;69485;59.138;37.926;2023-05-07T00:02:48;1.52;;;0.98;;
80157;SDS011;69485;59.138;37.926;2023-05-07T00:05:14;0.47;;;0.40;;
80157;SDS011;69485;59.138;37.926;2023-05-07T00:07:39;1.80;;;0.90;;
80157;SDS011;69485;59.138;37.926;2023-05-07T00:10:06;2.95;;;1.08;;
80157;SDS011;69485;59.138;37.926;2023-05-07T00:12:32;1.77;;;0.47;;
80157;SDS011;69485;59.138;37.926;2023-05-07T00:17:24;2.05;;;1.52;;
80157;SDS011;69485;59.138;37.926;2023-05-07T00:19:50;2.25;;;1.30;;
80157;SDS011;69485;59.138;37.926;2023-05-07T00:22:16;1.02;;;0.52;;
80157;SDS011;69485;59.138;37.926;2023-05-07T00:24:42;0.80;;;0.40;;
80157;SDS011;69485;59.138;37.926;2023-05-07T00:27:08;0.70;;;0.28;;
80157;SDS011;69485;59.138;37.926;2023-05-07T00:29:34;0.90;;;0.50;;
80157;SDS011;69485;59.138;37.926;2023-05-07T00:31:59;3.30;;;1.60;;
80157;SDS011;69485;59.138;37.926;2023-05-07T00:34:25;3.28;;;1.40;;
80157;SDS011;69485;59.138;37.926;2023-05-07T00:36:51;3.90;;;1.02;;
80157;SDS011;69485;59.138;37.926;2023-05-07T00:39:17;1.55;;;1.23;;
80157;SDS011;69485;59.138;37.926;2023-05-07T00:41:42;1.25;;;0.93;;
80157;SDS011;69485;59.138;37.926;2023-05-07T00:44:08;0.98;;;0.93;;
80157;SDS011;69485;59.138;37.926;2023-05-07T00:46:34;0.95;;;0.70;;
80157;SDS011;69485;59.138;37.926;2023-05-07T00:49:00;1.15;;;0.52;;
80157;SDS011;69485;59.138;37.926;2023-05-07T00:51:26;2.83;;;1.20;;
80157;SDS011;69485;59.138;37.926;2023-05-07T00:53:55;3.13;;;2.88;;
80157;SDS011;69485;59.138;37.926;2023-05-07T00:56:21;3.40;;;3.10;;
80157;SDS011;69485;59.138;37.926;2023-05-07T00:58:46;7.85;;;7.15;;
80157;SDS011;69485;59.138;37.926;2023-05-07T01:01:12;10.38;;;9.45;;
80157;SDS011;69485;59.138;37.926;2023-05-07T01:03:38;11.95;;;10.95;;
80157;SDS011;69485;59.138;37.926;2023-05-07T01:06:04;18.73;;;16.95;;
80157;SDS011;69485;59.138;37.926;2023-05-07T01:08:32;27.70;;;24.80;;
80157;SDS011;69485;59.138;37.926;2023-05-07T01:10:58;36.72;;;31.15;;
80157;SDS011;69485;59.138;37.926;2023-05-07T01:13:24;5.13;;;4.78;;
80157;SDS011;69485;59.138;37.926;2023-05-07T01:15:50;9.63;;;8.88;;
80157;SDS011;69485;59.138;37.926;2023-05-07T01:18:16;10.05;;;9.23;;
80157;SDS011;69485;59.138;37.926;2023-05-07T01:20:42;167.15;;;66.35;;
80157;SDS011;69485;59.138;37.926;2023-05-07T01:23:07;82.50;;;44.47;;
80157;SDS011;69485;59.138;37.926;2023-05-07T01:25:34;248.95;;;87.32;;
80157;SDS011;69485;59.138;37.926;2023-05-07T01:28:00;279.48;;;94.57;;
80157;SDS011;69485;59.138;37.926;2023-05-07T01:30:26;304.75;;;100.18;;
80157;SDS011;69485;59.138;37.926;2023-05-07T01:32:57;14.02;;;12.75;;
80157;SDS011;69485;59.138;37.926;2023-05-07T01:35:36;8.18;;;7.47;;
80157;SDS011;69485;59.138;37.926;2023-05-07T01:38:03;4.40;;;4.10;;
80157;SDS011;69485;59.138;37.926;2023-05-07T01:40:31;3.42;;;3.13;;
80157;SDS011;69485;59.138;37.926;2023-05-07T01:42:57;2.10;;;2.00;;
80157;SDS011;69485;59.138;37.926;2023-05-07T01:45:22;3.35;;;3.03;;
80157;SDS011;69485;59.138;37.926;2023-05-07T01:47:49;184.52;;;66.50;;
80157;SDS011;69485;59.138;37.926;2023-05-07T01:50:15;6.38;;;5.63;;
80157;SDS011;69485;59.138;37.926;2023-05-07T01:52:42;1.08;;;0.57;;
80157;SDS011;69485;59.138;37.926;2023-05-07T01:55:08;8.95;;;7.57;;
80157;SDS011;69485;59.138;37.926;2023-05-07T01:57:34;4.35;;;2.92;;
80157;SDS011;69485;59.138;37.926;2023-05-07T02:00:00;0.75;;;0.52;;
80157;SDS011;69485;59.138;37.926;2023-05-07T02:02:28;0.40;;;0.30;;
80157;SDS011;69485;59.138;37.926;2023-05-07T02:04:54;1.13;;;0.52;;
80157;SDS011;69485;59.138;37.926;2023-05-07T02:07:19;0.63;;;0.40;;
80157;SDS011;69485;59.138;37.926;2023-05-07T02:09:45;0.77;;;0.50;;
80157;SDS011;69485;59.138;37.926;2023-05-07T02:12:11;0.63;;;0.22;;
80157;SDS011;69485;59.138;37.926;2023-05-07T02:14:36;1.90;;;1.00;;
80157;SDS011;69485;59.138;37.926;2023-05-07T02:17:02;0.65;;;0.47;;
80157;SDS011;69485;59.138;37.926;2023-05-07T02:19:28;2.72;;;0.70;;
80157;SDS011;69485;59.138;37.926;2023-05-07T02:21:54;3.53;;;1.00;;
80157;SDS011;69485;59.138;37.926;2023-05-07T02:24:20;1.77;;;0.80;;
80157;SDS011;69485;59.138;37.926;2023-05-07T02:26:45;0.90;;;0.60;;
80157;SDS011;69485;59.138;37.926;2023-05-07T02:29:11;0.77;;;0.28;;
80157;SDS011;69485;59.138;37.926;2023-05-07T02:31:37;0.40;;;0.30;;
80157;SDS011;69485;59.138;37.926;2023-05-07T02:34:03;1.33;;;0.40;;
80157;SDS011;69485;59.138;37.926;2023-05-07T02:36:29;0.25;;;0.25;;
80157;SDS011;69485;59.138;37.926;2023-05-07T02:38:55;0.63;;;0.40;;
80157;SDS011;69485;59.138;37.926;2023-05-07T02:41:21;0.47;;;0.30;;
80157;SDS011;69485;59.138;37.926;2023-05-07T02:43:46;0.43;;;0.40;;
80157;SDS011;69485;59.138;37.926;2023-05-07T02:46:12;0.65;;;0.38;;
80157;SDS011;69485;59.138;37.926;2023-05-07T02:48:38;1.70;;;0.38;;
80157;SDS011;69485;59.138;37.926;2023-05-07T02:51:04;0.47;;;0.40;;
80157;SDS011;69485;59.138;37.926;2023-05-07T02:53:30;1.02;;;0.50;;
80157;SDS011;69485;59.138;37.926;2023-05-07T02:55:57;0.60;;;0.40;;
80157;SDS011;69485;59.138;37.926;2023-05-07T02:58:23;0.75;;;0.45;;
80157;SDS011;69485;59.138;37.926;2023-05-07T03:00:48;2.10;;;0.65;;
80157;SDS011;69485;59.138;37.926;2023-05-07T03:03:14;2.10;;;0.47;;
80157;SDS011;69485;59.138;37.926;2023-05-07T03:05:40;0.80;;;0.60;;
80157;SDS011;69485;59.138;37.926;2023-05-07T03:08:06;2.10;;;0.88;;
80157;SDS011;69485;59.138;37.926;2023-05-07T03:10:32;1.90;;;0.73;;
80157;SDS011;69485;59.138;37.926;2023-05-07T03:12:58;1.52;;;0.50;;
80157;SDS011;69485;59.138;37.926;2023-05-07T03:15:24;8.98;;;1.30;;
80157;SDS011;69485;59.138;37.926;2023-05-07T03:17:49;1.40;;;0.82;;
80157;SDS011;69485;59.138;37.926;2023-05-07T03:20:15;3.35;;;1.27;;
80157;SDS011;69485;59.138;37.926;2023-05-07T03:22:41;2.55;;;1.15;;
80157;SDS011;69485;59.138;37.926;2023-05-07T03:25:08;6.75;;;1.42;;
80157;SDS011;69485;59.138;37.926;2023-05-07T03:27:34;2.72;;;1.42;;
80157;SDS011;69485;59.138;37.926;2023-05-07T03:30:00;8.15;;;3.33;;
80157;SDS011;69485;59.138;37.926;2023-05-07T03:32:25;13.88;;;4.72;;
80157;SDS011;69485;59.138;37.926;2023-05-07T03:34:51;19.55;;;5.60;;
80157;SDS011;69485;59.138;37.926;2023-05-07T03:37:17;17.95;;;5.93;;
80157;SDS011;69485;59.138;37.926;2023-05-07T03:39:43;35.65;;;11.98;;
80157;SDS011;69485;59.138;37.926;2023-05-07T03:42:08;49.92;;;14.50;;
80157;SDS011;69485;59.138;37.926;2023-05-07T03:44:34;47.65;;;12.35;;
80157;SDS011;69485;59.138;37.926;2023-05-07T03:49:27;17.25;;;5.50;;
80157;SDS011;69485;59.138;37.926;2023-05-07T03:51:52;5.80;;;2.97;;
80157;SDS011;69485;59.138;37.926;2023-05-07T03:54:18;9.02;;;3.08;;
80157;SDS011;69485;59.138;37.926;2023-05-07T03:56:44;7.90;;;2.45;;
80157;SDS011;69485;59.138;37.926;2023-05-07T03:59:10;6.97;;;2.53;;
80157;SDS011;69485;59.138;37.926;2023-05-07T04:01:36;6.03;;;2.08;;
80157;SDS011;69485;59.138;37.926;2023-05-07T04:04:01;5.30;;;1.83;;
80157;SDS011;69485;59.138;37.926;2023-05-07T04:06:28;4.60;;;1.88;;
80157;SDS011;69485;59.138;37.926;2023-05-07T04:08:54;2.92;;;1.05;;
80157;SDS011;69485;59.138;37.926;2023-05-07T04:11:19;2.63;;;0.55;;
80157;SDS011;69485;59.138;37.926;2023-05-07T04:13:45;1.83;;;0.93;;
80157;SDS011;69485;59.138;37.926;2023-05-07T04:16:11;3.10;;;0.70;;
80157;SDS011;69485;59.138;37.926;2023-05-07T04:18:37;1.60;;;0.50;;
80157;SDS011;69485;59.138;37.926;2023-05-07T04:21:03;0.88;;;0.63;;
80157;SDS011;69485;59.138;37.926;2023-05-07T04:23:28;2.88;;;0.70;;
80157;SDS011;69485;59.138;37.926;2023-05-07T04:25:54;1.55;;;0.50;;
80157;SDS011;69485;59.138;37.926;2023-05-07T04:28:20;2.53;;;1.00;;
80157;SDS011;69485;59.138;37.926;2023-05-07T04:30:46;1.00;;;0.63;;
80157;SDS011;69485;59.138;37.926;2023-05-07T04:33:13;2.08;;;1.05;;
80157;SDS011;69485;59.138;37.926;2023-05-07T04:35:39;4.03;;;1.02;;
80157;SDS011;69485;59.138;37.926;2023-05-07T04:38:05;1.20;;;0.75;;
80157;SDS011;69485;59.138;37.926;2023-05-07T04:40:31;3.17;;;0.75;;
80157;SDS011;69485;59.138;37.926;2023-05-07T04:42:57;2.17;;;0.63;;
80157;SDS011;69485;59.138;37.926;2023-05-07T04:45:23;1.08;;;0.32;;
80157;SDS011;69485;59.138;37.926;2023-05-07T04:47:48;0.40;;;0.32;;
80157;SDS011;69485;59.138;37.926;2023-05-07T04:50:15;0.85;;;0.30;;
80157;SDS011;69485;59.138;37.926;2023-05-07T04:52:41;0.30;;;0.30;;
80157;SDS011;69485;59.138;37.926;2023-05-07T04:55:07;0.80;;;0.60;;
80157;SDS011;69485;59.138;37.926;2023-05-07T04:57:33;0.30;;;0.15;;
80157;SDS011;69485;59.138;37.926;2023-05-07T05:00:00;0.80;;;0.40;;
80157;SDS011;69485;59.138;37.926;2023-05-07T05:02:26;0.95;;;0.43;;
80157;SDS011;69485;59.138;37.926;2023-05-07T05:04:51;0.73;;;0.30;;
80157;SDS011;69485;59.138;37.926;2023-05-07T05:07:18;2.35;;;0.60;;
80157;SDS011;69485;59.138;37.926;2023-05-07T05:09:44;0.93;;;0.50;;
80157;SDS011;69485;59.138;37.926;2023-05-07T05:12:10;1.13;;;0.60;;
80157;SDS011;69485;59.138;37.926;2023-05-07T05:14:36;0.60;;;0.40;;
80157;SDS011;69485;59.138;37.926;2023-05-07T05:17:01;0.90;;;0.40;;
80157;SDS011;69485;59.138;37.926;2023-05-07T05:19:27;1.48;;;0.65;;
80157;SDS011;69485;59.138;37.926;2023-05-07T05:21:53;0.80;;;0.30;;
80157;SDS011;69485;59.138;37.926;2023-05-07T05:24:19;0.30;;;0.20;;
80157;SDS011;69485;59.138;37.926;2023-05-07T05:26:45;0.57;;;0.40;;
80157;SDS011;69485;59.138;37.926;2023-05-07T05:29:11;2.40;;;0.50;;
80157;SDS011;69485;59.138;37.926;2023-05-07T05:31:37;2.83;;;0.40;;
80157;SDS011;69485;59.138;37.926;2023-05-07T05:34:03;0.40;;;0.40;;
80157;SDS011;69485;59.138;37.926;2023-05-07T05:36:29;0.30;;;0.30;;
80157;SDS011;69485;59.138;37.926;2023-05-07T05:38:56;0.82;;;0.30;;
80157;SDS011;69485;59.138;37.926;2023-05-07T05:41:21;0.88;;;0.38;;
80157;SDS011;69485;59.138;37.926;2023-05-07T05:43:48;0.95;;;0.35;;
80157;SDS011;69485;59.138;37.926;2023-05-07T05:46:14;0.98;;;0.50;;
80157;SDS011;69485;59.138;37.926;2023-05-07T05:48:40;0.80;;;0.63;;
80157;SDS011;69485;59.138;37.926;2023-05-07T05:51:06;1.23;;;0.20;;
80157;SDS011;69485;59.138;37.926;2023-05-07T05:53:31;0.50;;;0.20;;
80157;SDS011;69485;59.138;37.926;2023-05-07T05:55:57;1.10;;;0.47;;
80157;SDS011;69485;59.138;37.926;2023-05-07T05:58:23;0.32;;;0.28;;
80157;SDS011;69485;59.138;37.926;2023-05-07T06:00:49;0.63;;;0.35;;
80157;SDS011;69485;59.138;37.926;2023-05-07T06:03:17;0.77;;;0.30;;
80157;SDS011;69485;59.138;37.926;2023-05-07T06:05:43;0.77;;;0.40;;
80157;SDS011;69485;59.138;37.926;2023-05-07T06:08:09;1.58;;;0.38;;
80157;SDS011;69485;59.138;37.926;2023-05-07T06:10:35;0.80;;;0.35;;
80157;SDS011;69485;59.138;37.926;2023-05-07T06:13:01;0.80;;;0.40;;
80157;SDS011;69485;59.138;37.926;2023-05-07T06:15:27;0.40;;;0.25;;
80157;SDS011;69485;59.138;37.926;2023-05-07T06:17:53;0.40;;;0.35;;
80157;SDS011;69485;59.138;37.926;2023-05-07T06:20:21;0.20;;;0.20;;
80157;SDS011;69485;59.138;37.926;2023-05-07T06:22:47;0.30;;;0.30;;
80157;SDS011;69485;59.138;37.926;2023-05-07T06:25:13;0.70;;;0.50;;
80157;SDS011;69485;59.138;37.926;2023-05-07T06:27:39;0.57;;;0.50;;
80157;SDS011;69485;59.138;37.926;2023-05-07T06:30:05;1.42;;;0.52;;
80157;SDS011;69485;59.138;37.926;2023-05-07T06:32:31;0.40;;;0.22;;
80157;SDS011;69485;59.138;37.926;2023-05-07T06:34:57;0.80;;;0.45;;
80157;SDS011;69485;59.138;37.926;2023-05-07T06:37:23;1.00;;;0.57;;
80157;SDS011;69485;59.138;37.926;2023-05-07T06:39:49;0.52;;;0.35;;
80157;SDS011;69485;59.138;37.926;2023-05-07T06:42:15;1.00;;;0.40;;
80157;SDS011;69485;59.138;37.926;2023-05-07T06:44:41;0.88;;;0.22;;
80157;SDS011;69485;59.138;37.926;2023-05-07T06:47:07;1.45;;;0.40;;
80157;SDS011;69485;59.138;37.926;2023-05-07T06:49:33;1.10;;;0.32;;
80157;SDS011;69485;59.138;37.926;2023-05-07T06:51:59;0.57;;;0.30;;
80157;SDS011;69485;59.138;37.926;2023-05-07T06:54:25;0.30;;;0.28;;
80157;SDS011;69485;59.138;37.926;2023-05-07T06:56:52;1.52;;;0.40;;
80157;SDS011;69485;59.138;37.926;2023-05-07T06:59:18;0.30;;;0.30;;
80157;SDS011;69485;59.138;37.926;2023-05-07T07:04:10;0.52;;;0.40;;
80157;SDS011;69485;59.138;37.926;2023-05-07T07:06:36;1.05;;;0.20;;
80157;SDS011;69485;59.138;37.926;2023-05-07T07:09:01;3.35;;;0.75;;
80157;SDS011;69485;59.138;37.926;2023-05-07T07:11:27;0.30;;;0.20;;
80157;SDS011;69485;59.138;37.926;2023-05-07T07:13:53;0.50;;;0.30;;
80157;SDS011;69485;59.138;37.926;2023-05-07T07:16:20;0.60;;;0.40;;
80157;SDS011;69485;59.138;37.926;2023-05-07T07:18:46;1.08;;;0.73;;
80157;SDS011;69485;59.138;37.926;2023-05-07T07:21:13;0.80;;;0.40;;
80157;SDS011;69485;59.138;37.926;2023-05-07T07:23:39;1.52;;;0.68;;
80157;SDS011;69485;59.138;37.926;2023-05-07T07:26:05;0.55;;;0.40;;
80157;SDS011;69485;59.138;37.926;2023-05-07T07:28:32;0.30;;;0.20;;
80157;SDS011;69485;59.138;37.926;2023-05-07T07:30:58;0.32;;;0.22;;
80157;SDS011;69485;59.138;37.926;2023-05-07T07:33:24;0.70;;;0.32;;
80157;SDS011;69485;59.138;37.926;2023-05-07T07:35:50;0.35;;;0.30;;
80157;SDS011;69485;59.138;37.926;2023-05-07T07:38:16;1.52;;;0.50;;
80157;SDS011;69485;59.138;37.926;2023-05-07T07:40:41;0.95;;;0.60;;
80157;SDS011;69485;59.138;37.926;2023-05-07T07:43:09;1.10;;;0.50;;
80157;SDS011;69485;59.138;37.926;2023-05-07T07:45:35;0.40;;;0.30;;
80157;SDS011;69485;59.138;37.926;2023-05-07T07:48:01;1.83;;;0.30;;
80157;SDS011;69485;59.138;37.926;2023-05-07T07:50:27;0.63;;;0.40;;
80157;SDS011;69485;59.138;37.926;2023-05-07T07:52:53;0.52;;;0.20;;
80157;SDS011;69485;59.138;37.926;2023-05-07T07:55:19;3.63;;;0.60;;
80157;SDS011;69485;59.138;37.926;2023-05-07T07:57:51;2.63;;;0.55;;
80157;SDS011;69485;59.138;37.926;2023-05-07T08:00:17;2.00;;;0.40;;
80157;SDS011;69485;59.138;37.926;2023-05-07T08:02:43;1.40;;;0.30;;
80157;SDS011;69485;59.138;37.926;2023-05-07T08:05:08;0.85;;;0.32;;
80157;SDS011;69485;59.138;37.926;2023-05-07T08:07:34;0.80;;;0.50;;
80157;SDS011;69485;59.138;37.926;2023-05-07T08:10:00;0.88;;;0.52;;
80157;SDS011;69485;59.138;37.926;2023-05-07T08:12:26;3.85;;;0.75;;
80157;SDS011;69485;59.138;37.926;2023-05-07T08:14:52;0.47;;;0.25;;
80157;SDS011;69485;59.138;37.926;2023-05-07T08:17:17;1.27;;;0.35;;
80157;SDS011;69485;59.138;37.926;2023-05-07T08:19:43;0.43;;;0.20;;
80157;SDS011;69485;59.138;37.926;2023-05-07T08:22:09;0.75;;;0.30;;
80157;SDS011;69485;59.138;37.926;2023-05-07T08:24:36;0.90;;;0.50;;
80157;SDS011;69485;59.138;37.926;2023-05-07T08:27:02;0.93;;;0.28;;
80157;SDS011;69485;59.138;37.926;2023-05-07T08:29:28;1.50;;;0.60;;
80157;SDS011;69485;59.138;37.926;2023-05-07T08:31:54;2.13;;;0.60;;
80157;SDS011;69485;59.138;37.926;2023-05-07T08:34:20;2.25;;;0.85;;
80157;SDS011;69485;59.138;37.926;2023-05-07T08:36:48;1.65;;;0.60;;
80157;SDS011;69485;59.138;37.926;2023-05-07T08:39:17;1.50;;;0.57;;
80157;SDS011;69485;59.138;37.926;2023-05-07T08:41:46;2.13;;;0.55;;
80157;SDS011;69485;59.138;37.926;2023-05-07T08:44:13;0.65;;;0.43;;
80157;SDS011;69485;59.138;37.926;2023-05-07T08:46:39;0.63;;;0.40;;
80157;SDS011;69485;59.138;37.926;2023-05-07T08:49:07;0.88;;;0.60;;
80157;SDS011;69485;59.138;37.926;2023-05-07T08:51:33;1.38;;;0.55;;
80157;SDS011;69485;59.138;37.926;2023-05-07T08:53:59;3.53;;;1.08;;
80157;SDS011;69485;59.138;37.926;2023-05-07T08:56:25;3.00;;;0.50;;
80157;SDS011;69485;59.138;37.926;2023-05-07T08:58:51;2.25;;;0.90;;
80157;SDS011;69485;59.138;37.926;2023-05-07T09:01:16;1.35;;;0.40;;
80157;SDS011;69485;59.138;37.926;2023-05-07T09:03:45;0.52;;;0.30;;
80157;SDS011;69485;59.138;37.926;2023-05-07T09:06:12;1.30;;;0.43;;
80157;SDS011;69485;59.138;37.926;2023-05-07T09:08:38;0.77;;;0.30;;
80157;SDS011;69485;59.138;37.926;2023-05-07T09:11:03;0.68;;;0.50;;
80157;SDS011;69485;59.138;37.926;2023-05-07T09:13:30;0.30;;;0.20;;
80157;SDS011;69485;59.138;37.926;2023-05-07T09:15:55;0.50;;;0.40;;
80157;SDS011;69485;59.138;37.926;2023-05-07T09:18:25;1.55;;;0.57;;
80157;SDS011;69485;59.138;37.926;2023-05-07T09:20:51;0.98;;;0.57;;
80157;SDS011;69485;59.138;37.926;2023-05-07T09:23:17;0.20;;;0.20;;
80157;SDS011;69485;59.138;37.926;2023-05-07T09:25:42;1.95;;;0.40;;
80157;SDS011;69485;59.138;37.926;2023-05-07T09:28:08;0.88;;;0.20;;
80157;SDS011;69485;59.138;37.926;2023-05-07T09:30:36;1.25;;;0.20;;
80157;SDS011;69485;59.138;37.926;2023-05-07T09:33:03;0.82;;;0.50;;
80157;SDS011;69485;59.138;37.926;2023-05-07T09:35:29;0.40;;;0.30;;
80157;SDS011;69485;59.138;37.926;2023-05-07T09:37:59;0.50;;;0.22;;
80157;SDS011;69485;59.138;37.926;2023-05-07T09:40:26;0.40;;;0.30;;
80157;SDS011;69485;59.138;37.926;2023-05-07T09:42:54;2.47;;;0.70;;
80157;SDS011;69485;59.138;37.926;2023-05-07T09:45:29;1.33;;;0.40;;
80157;SDS011;69485;59.138;37.926;2023-05-07T09:47:57;1.70;;;0.73;;
80157;SDS011;69485;59.138;37.926;2023-05-07T09:50:27;1.33;;;0.25;;
80157;SDS011;69485;59.138;37.926;2023-05-07T09:52:53;3.47;;;0.75;;
80157;SDS011;69485;59.138;37.926;2023-05-07T09:55:22;2.67;;;0.40;;
80157;SDS011;69485;59.138;37.926;2023-05-07T09:57:52;0.30;;;0.20;;
80157;SDS011;69485;59.138;37.926;2023-05-07T10:00:20;2.20;;;0.63;;
80157;SDS011;69485;59.138;37.926;2023-05-07T10:02:48;0.55;;;0.30;;
80157;SDS011;69485;59.138;37.926;2023-05-07T10:05:16;1.13;;;0.30;;
80157;SDS011;69485;59.138;37.926;2023-05-07T10:07:42;0.63;;;0.30;;
80157;SDS011;69485;59.138;37.926;2023-05-07T10:10:08;0.25;;;0.20;;
80157;SDS011;69485;59.138;37.926;2023-05-07T10:12:34;0.95;;;0.40;;
80157;SDS011;69485;59.138;37.926;2023-05-07T10:15:07;1.05;;;0.20;;
80157;SDS011;69485;59.138;37.926;2023-05-07T10:17:40;0.95;;;0.30;;
80157;SDS011;69485;59.138;37.926;2023-05-07T10:20:06;0.85;;;0.30;;
80157;SDS011;69485;59.138;37.926;2023-05-07T10:22:41;0.38;;;0.20;;
80157;SDS011;69485;59.138;37.926;2023-05-07T10:25:18;0.88;;;0.60;;
80157;SDS011;69485;59.138;37.926;2023-05-07T10:27:46;0.65;;;0.50;;
80157;SDS011;69485;59.138;37.926;2023-05-07T10:32:45;0.50;;;0.30;;
80157;SDS011;69485;59.138;37.926;2023-05-07T10:35:16;0.60;;;0.32;;
80157;SDS011;69485;59.138;37.926;2023-05-07T10:37:43;1.33;;;0.68;;
80157;SDS011;69485;59.138;37.926;2023-05-07T10:40:09;1.20;;;0.70;;
80157;SDS011;69485;59.138;37.926;2023-05-07T10:42:35;3.25;;;0.80;;
80157;SDS011;69485;59.138;37.926;2023-05-07T10:45:14;0.45;;;0.30;;
80157;SDS011;69485;59.138;37.926;2023-05-07T10:50:27;1.40;;;0.50;;
80157;SDS011;69485;59.138;37.926;2023-05-07T10:55:37;1.27;;;0.30;;
80157;SDS011;69485;59.138;37.926;2023-05-07T10:58:22;0.95;;;0.35;;
80157;SDS011;69485;59.138;37.926;2023-05-07T11:00:48;0.35;;;0.30;;
80157;SDS011;69485;59.138;37.926;2023-05-07T11:05:41;2.00;;;0.35;;
80157;SDS011;69485;59.138;37.926;2023-05-07T11:08:07;3.40;;;0.40;;
80157;SDS011;69485;59.138;37.926;2023-05-07T11:13:19;0.30;;;0.30;;
80157;SDS011;69485;59.138;37.926;2023-05-07T11:16:04;0.90;;;0.30;;
80157;SDS011;69485;59.138;37.926;2023-05-07T11:18:49;0.38;;;0.30;;
80157;SDS011;69485;59.138;37.926;2023-05-07T11:21:49;0.38;;;0.20;;
80157;SDS011;69485;59.138;37.926;2023-05-07T11:24:08;0.43;;;0.30;;
80157;SDS011;69485;59.138;37.926;2023-05-07T11:26:44;0.50;;;0.30;;
80157;SDS011;69485;59.138;37.926;2023-05-07T11:29:11;1.08;;;0.40;;
80157;SDS011;69485;59.138;37.926;2023-05-07T11:31:37;4.40;;;1.42;;
80157;SDS011;69485;59.138;37.926;2023-05-07T11:34:03;0.10;;;0.10;;
80157;SDS011;69485;59.138;37.926;2023-05-07T11:36:30;0.88;;;0.30;;
80157;SDS011;69485;59.138;37.926;2023-05-07T11:38:56;0.40;;;0.32;;
80157;SDS011;69485;59.138;37.926;2023-05-07T11:41:21;0.60;;;0.40;;
80157;SDS011;69485;59.138;37.926;2023-05-07T11:43:54;0.47;;;0.30;;
80157;SDS011;69485;59.138;37.926;2023-05-07T11:46:21;0.77;;;0.40;;
80157;SDS011;69485;59.138;37.926;2023-05-07T11:48:47;0.57;;;0.38;;
80157;SDS011;69485;59.138;37.926;2023-05-07T11:51:13;1.13;;;0.50;;
80157;SDS011;69485;59.138;37.926;2023-05-07T11:53:43;0.50;;;0.22;;
80157;SDS011;69485;59.138;37.926;2023-05-07T11:56:10;0.63;;;0.30;;
80157;SDS011;69485;59.138;37.926;2023-05-07T11:58:37;1.00;;;0.38;;
80157;SDS011;69485;59.138;37.926;2023-05-07T12:01:03;0.45;;;0.30;;
80157;SDS011;69485;59.138;37.926;2023-05-07T12:03:28;3.38;;;0.47;;
80157;SDS011;69485;59.138;37.926;2023-05-07T12:05:54;0.40;;;0.25;;
80157;SDS011;69485;59.138;37.926;2023-05-07T12:08:20;1.88;;;0.40;;
80157;SDS011;69485;59.138;37.926;2023-05-07T12:10:48;0.45;;;0.40;;
80157;SDS011;69485;59.138;37.926;2023-05-07T12:13:14;0.60;;;0.50;;
80157;SDS011;69485;59.138;37.926;2023-05-07T12:15:40;1.45;;;0.50;;
80157;SDS011;69485;59.138;37.926;2023-05-07T12:18:06;0.55;;;0.38;;
80157;SDS011;69485;59.138;37.926;2023-05-07T12:20:33;0.80;;;0.57;;
80157;SDS011;69485;59.138;37.926;2023-05-07T12:22:59;2.97;;;1.85;;
80157;SDS011;69485;59.138;37.926;2023-05-07T12:25:25;4.35;;;1.98;;
80157;SDS011;69485;59.138;37.926;2023-05-07T12:27:54;2.50;;;0.57;;
80157;SDS011;69485;59.138;37.926;2023-05-07T12:30:19;0.50;;;0.30;;
80157;SDS011;69485;59.138;37.926;2023-05-07T12:32:45;0.68;;;0.22;;
80157;SDS011;69485;59.138;37.926;2023-05-07T12:35:11;1.23;;;0.25;;
80157;SDS011;69485;59.138;37.926;2023-05-07T12:37:37;0.57;;;0.40;;
80157;SDS011;69485;59.138;37.926;2023-05-07T12:40:07;1.08;;;0.50;;
80157;SDS011;69485;59.138;37.926;2023-05-07T12:42:35;0.20;;;0.15;;
80157;SDS011;69485;59.138;37.926;2023-05-07T12:45:07;0.40;;;0.40;;
80157;SDS011;69485;59.138;37.926;2023-05-07T12:47:32;0.55;;;0.40;;
80157;SDS011;69485;59.138;37.926;2023-05-07T12:49:59;0.45;;;0.40;;
80157;SDS011;69485;59.138;37.926;2023-05-07T12:52:24;0.40;;;0.38;;
80157;SDS011;69485;59.138;37.926;2023-05-07T12:54:50;0.52;;;0.43;;
80157;SDS011;69485;59.138;37.926;2023-05-07T12:57:18;0.50;;;0.38;;
80157;SDS011;69485;59.138;37.926;2023-05-07T12:59:45;0.40;;;0.20;;
80157;SDS011;69485;59.138;37.926;2023-05-07T13:02:11;0.50;;;0.30;;
80157;SDS011;69485;59.138;37.926;2023-05-07T13:04:36;0.57;;;0.30;;
80157;SDS011;69485;59.138;37.926;2023-05-07T13:07:02;2.20;;;0.30;;
80157;SDS011;69485;59.138;37.926;2023-05-07T13:09:28;0.70;;;0.30;;
80157;SDS011;69485;59.138;37.926;2023-05-07T13:11:57;0.65;;;0.40;;
80157;SDS011;69485;59.138;37.926;2023-05-07T13:14:25;0.73;;;0.43;;
80157;SDS011;69485;59.138;37.926;2023-05-07T13:16:51;1.35;;;0.50;;
80157;SDS011;69485;59.138;37.926;2023-05-07T13:19:16;1.27;;;0.70;;
80157;SDS011;69485;59.138;37.926;2023-05-07T13:21:42;0.63;;;0.63;;
80157;SDS011;69485;59.138;37.926;2023-05-07T13:24:08;0.90;;;0.60;;
80157;SDS011;69485;59.138;37.926;2023-05-07T13:26:34;0.77;;;0.47;;
80157;SDS011;69485;59.138;37.926;2023-05-07T13:29:00;0.60;;;0.50;;
80157;SDS011;69485;59.138;37.926;2023-05-07T13:31:26;1.70;;;0.75;;
80157;SDS011;69485;59.138;37.926;2023-05-07T13:33:52;1.33;;;0.70;;
80157;SDS011;69485;59.138;37.926;2023-05-07T13:36:18;0.85;;;0.60;;
80157;SDS011;69485;59.138;37.926;2023-05-07T13:38:43;0.30;;;0.30;;
80157;SDS011;69485;59.138;37.926;2023-05-07T13:41:09;0.82;;;0.60;;
80157;SDS011;69485;59.138;37.926;2023-05-07T13:43:35;0.73;;;0.57;;
80157;SDS011;69485;59.138;37.926;2023-05-07T13:46:01;0.63;;;0.43;;
80157;SDS011;69485;59.138;37.926;2023-05-07T13:48:27;0.25;;;0.25;;
80157;SDS011;69485;59.138;37.926;2023-05-07T13:50:54;0.60;;;0.25;;
80157;SDS011;69485;59.138;37.926;2023-05-07T13:53:19;0.22;;;0.22;;
80157;SDS011;69485;59.138;37.926;2023-05-07T13:55:45;1.20;;;0.60;;
80157;SDS011;69485;59.138;37.926;2023-05-07T13:58:11;0.40;;;0.30;;
80157;SDS011;69485;59.138;37.926;2023-05-07T14:00:37;0.40;;;0.30;;
80157;SDS011;69485;59.138;37.926;2023-05-07T14:03:04;0.30;;;0.20;;
80157;SDS011;69485;59.138;37.926;2023-05-07T14:05:30;1.20;;;0.50;;
80157;SDS011;69485;59.138;37.926;2023-05-07T14:07:59;0.60;;;0.40;;
80157;SDS011;69485;59.138;37.926;2023-05-07T14:10:25;1.23;;;0.40;;
80157;SDS011;69485;59.138;37.926;2023-05-07T14:12:50;1.38;;;0.60;;
80157;SDS011;69485;59.138;37.926;2023-05-07T14:15:16;1.70;;;0.73;;
80157;SDS011;69485;59.138;37.926;2023-05-07T14:17:42;1.20;;;0.60;;
80157;SDS011;69485;59.138;37.926;2023-05-07T14:20:08;1.65;;;0.60;;
80157;SDS011;69485;59.138;37.926;2023-05-07T14:22:35;1.45;;;0.57;;
80157;SDS011;69485;59.138;37.926;2023-05-07T14:25:01;1.80;;;0.90;;
80157;SDS011;69485;59.138;37.926;2023-05-07T14:27:27;1.27;;;0.70;;
80157;SDS011;69485;59.138;37.926;2023-05-07T14:29:53;1.98;;;0.90;;
80157;SDS011;69485;59.138;37.926;2023-05-07T14:32:19;0.95;;;0.60;;
80157;SDS011;69485;59.138;37.926;2023-05-07T14:34:45;1.60;;;0.80;;
80157;SDS011;69485;59.138;37.926;2023-05-07T14:37:11;0.85;;;0.40;;
80157;SDS011;69485;59.138;37.926;2023-05-07T14:39:37;2.65;;;1.15;;
80157;SDS011;69485;59.138;37.926;2023-05-07T14:42:03;1.65;;;1.10;;
80157;SDS011;69485;59.138;37.926;2023-05-07T14:44:29;1.77;;;0.50;;
80157;SDS011;69485;59.138;37.926;2023-05-07T14:46:54;2.70;;;0.95;;
80157;SDS011;69485;59.138;37.926;2023-05-07T14:49:20;1.30;;;0.80;;